Station: PLZEN LINE, ICAO: LKLN, Synop: ,
Koordinaten: 49 41 N 013 16 E, Hoehe: 362m, Entfernung: 65.16km
2018/02/22 07:00
LKLN 220700Z AUTO 04003KT 010V080 7000 NCD M07/M08 Q1020


Station: Hohenfels, ICAO: ETIH, Synop: Synop: 10775,
Koordinaten: 4913'00''N 01150'00''E, Hoehe: 442m, Entfernung: 94.69km
2018/02/22 06:56
ETIH 220656Z AUTO 03004KT 9999 BKN110 M05/M07 A3005 RMK AO2 SLP209 T10521066 $


Station: GAERMERSDORF, ICAO: EDZH, Synop: ,
Koordinaten: 49 25 N 011 54 E, Hoehe: 419m, Entfernung: 95.38km


Station: HOHENFELS (USAF), ICAO: EDIH, Synop: Synop: 10775,
Koordinaten: 49 13 N 011 49 E, Hoehe: 442m, Entfernung: 95.89km


Station: Kuemmersruck, ICAO: ETGK, Synop: Synop: 10771,
Koordinaten: 4926'00''N 01154'00''E, Hoehe: 419m, Entfernung: 96.05km


Station: Grafenwoehr, ICAO: ETIC, Synop: Synop: 10687,
Koordinaten: 4942'00''N 01157'00''E, Hoehe: 415m, Entfernung: 107.71km
2018/02/22 06:56
ETIC 220656Z AUTO 04003KT 9999 CLR M05/M08 A3007 RMK AO2 SLP214 T10501083 FZRANO $


mehr Wetter
WetterInfo - adds.pl 2.6.003 DL3EL © 2004-2017 [202630]